Terminal Aerodrome Forecast
Issued by NWS

Home | Current Version | Previous Version | Text Only | Print | Product List | Glossary On
Versions: 1 2 3 4 5 6 7 8 9 10 11 12 13 14 15 16 17 18 19 20 21 22 23 24
000
FTUS44 KLIX 190500 RRA
TAFHDC
TAF
KHDC 190540Z 1906/2006 08005KT 5SM BR BKN003 OVC025
      TEMPO 1907/1911 5SM -SHRA SCT003 BKN018
     FM191100 06005KT P6SM OVC020
     FM191500 06005KT 3SM SHRA OVC020
     FM191800 06006KT 1SM SHRA OVC015
     FM200030 04005KT 3SM SHRA BKN022
      AMD NOT SKED=

USA.gov is the U.S. government's official web portal to all federal, state and local government web resources and services.